Watertown, WI

6:07 PM CST on March 06, 2015 (GMT -0600)
Hunter Oaks Subdivision | Change Station
CLOSE
Current Station
Personal Weather Station
Location: Watertown, WI
Elevation: 840 ft
Nearby Weather Stations

Elev 840 ft 43.18 °N, 88.76 °W | Updated 4 seconds ago

Clear
Clear
24.1 °F
Feels Like 16 °F
N
6.9
Wind Variable Wind from West
Gusts 9.2 mph

Today
High -- | Low -- °F
--% Chance of Precip.
Yesterday
High -- | Low -- °F
Precip. -- in
6:22 AM 5:49 PM
Full, 99% visible
Pressure 30.08 in
Visibility 10.0 miles
Clouds Clear
Windchill 16 °F
Dew Point 12 °F
Humidity 59%
Rainfall in
Snow Depth Not available.
UV 0 out of 12
Pollen .40 out of 12
Air Quality Not available.
Flu Activity Not available.
METAR KRYV 062355Z AUTO 21007KT 10SM CLR M04/M08 A3008 RMK AO2 T10431085 11025 21045

More Conditions Fewer Conditions

Pressure 30.08 in
Visibility 10.0 miles
Clouds Clear
Windchill 16 °F
Dew Point 12 °F
Humidity 59%
Rainfall in
Snow Depth Not available.
UV 0 out of 12
Pollen .40 out of 12
Air Quality Not available.
Flu Activity Not available.
METAR KRYV 062355Z AUTO 21007KT 10SM CLR M04/M08 A3008 RMK AO2 T10431085 11025 21045

More Conditions Fewer Conditions

10-Day Weather Forecast

Almanac

Astronomy

Mar. 06, 2015 Rise Set
Actual Time
Civil Twilight
Nautical Twilight
Astronomical Twilight
Moon
Length of Visible Light
Length of Day
Tomorrow will be .
, % of the Moon is Illuminated

Today's Extremes

State Highs State Lows

Community

WunderPhotos

Upload Photos

1,803,460 photos uploaded!

WunderBlogs® & News

Nearby

Air Quality

  Air Quality AQ Index Pollutant
Not available.

Snow Depth

Station Depth Elevation

Earthquake Activity

City Distance Mag. Time & Date
Minimum magnitude displayed is 2.5.

Coastal Water Temperatures

Place Temperature

Nearby Weather Stations